sensor_id;sensor_type;location;lat;lon;timestamp;P1;durP1;ratioP1;P2;durP2;ratioP2
20369;SDS011;10344;47.592;9.600;2022-11-20T01:15:02;3.38;;;3.00;;
20369;SDS011;10344;47.592;9.600;2022-11-20T01:17:36;4.10;;;2.72;;
20369;SDS011;10344;47.592;9.600;2022-11-20T01:20:05;3.35;;;2.85;;
20369;SDS011;10344;47.592;9.600;2022-11-20T01:22:35;4.20;;;2.90;;
20369;SDS011;10344;47.592;9.600;2022-11-20T01:25:02;4.40;;;3.00;;
20369;SDS011;10344;47.592;9.600;2022-11-20T01:28:08;3.97;;;2.95;;
20369;SDS011;10344;47.592;9.600;2022-11-20T04:19:19;2.70;;;2.50;;
20369;SDS011;10344;47.592;9.600;2022-11-20T04:33:03;2.72;;;2.45;;
20369;SDS011;10344;47.592;9.600;2022-11-20T04:35:52;2.40;;;2.20;;
20369;SDS011;10344;47.592;9.600;2022-11-20T04:38:59;3.13;;;2.40;;
20369;SDS011;10344;47.592;9.600;2022-11-20T04:42:02;2.53;;;2.30;;
20369;SDS011;10344;47.592;9.600;2022-11-20T04:44:48;2.60;;;1.98;;
20369;SDS011;10344;47.592;9.600;2022-11-20T04:57:59;3.05;;;2.20;;
20369;SDS011;10344;47.592;9.600;2022-11-20T05:11:20;2.38;;;2.00;;
20369;SDS011;10344;47.592;9.600;2022-11-20T05:14:08;2.25;;;2.05;;
20369;SDS011;10344;47.592;9.600;2022-11-20T05:17:38;2.20;;;2.00;;
20369;SDS011;10344;47.592;9.600;2022-11-20T05:31:40;2.28;;;2.08;;
20369;SDS011;10344;47.592;9.600;2022-11-20T05:42:06;1.85;;;1.67;;
20369;SDS011;10344;47.592;9.600;2022-11-20T05:44:52;1.83;;;1.73;;
20369;SDS011;10344;47.592;9.600;2022-11-20T05:48:22;2.00;;;1.70;;
20369;SDS011;10344;47.592;9.600;2022-11-20T05:54:50;2.92;;;2.00;;
20369;SDS011;10344;47.592;9.600;2022-11-20T05:58:37;2.38;;;1.83;;
20369;SDS011;10344;47.592;9.600;2022-11-20T06:05:12;1.60;;;1.50;;
20369;SDS011;10344;47.592;9.600;2022-11-20T06:08:08;3.05;;;1.73;;
20369;SDS011;10344;47.592;9.600;2022-11-20T06:11:38;1.88;;;1.67;;
20369;SDS011;10344;47.592;9.600;2022-11-20T06:14:45;2.58;;;1.73;;
20369;SDS011;10344;47.592;9.600;2022-11-20T06:17:59;2.00;;;1.80;;
20369;SDS011;10344;47.592;9.600;2022-11-20T06:24:29;2.10;;;1.70;;
20369;SDS011;10344;47.592;9.600;2022-11-20T06:34:50;2.83;;;1.85;;
20369;SDS011;10344;47.592;9.600;2022-11-20T06:38:08;1.92;;;1.60;;
20369;SDS011;10344;47.592;9.600;2022-11-20T06:41:06;1.80;;;1.70;;
20369;SDS011;10344;47.592;9.600;2022-11-20T06:44:25;1.80;;;1.70;;
20369;SDS011;10344;47.592;9.600;2022-11-20T06:47:07;2.00;;;1.70;;
20369;SDS011;10344;47.592;9.600;2022-11-20T06:50:23;1.95;;;1.70;;
20369;SDS011;10344;47.592;9.600;2022-11-20T06:56:46;3.20;;;1.80;;
20369;SDS011;10344;47.592;9.600;2022-11-20T07:03:14;1.77;;;1.58;;
20369;SDS011;10344;47.592;9.600;2022-11-20T07:06:36;2.72;;;2.00;;
20369;SDS011;10344;47.592;9.600;2022-11-20T07:09:46;2.35;;;1.70;;
20369;SDS011;10344;47.592;9.600;2022-11-20T07:12:32;2.30;;;1.70;;
20369;SDS011;10344;47.592;9.600;2022-11-20T07:15:50;1.80;;;1.60;;
20369;SDS011;10344;47.592;9.600;2022-11-20T07:19:22;2.22;;;1.88;;
20369;SDS011;10344;47.592;9.600;2022-11-20T07:25:48;2.67;;;2.10;;
20369;SDS011;10344;47.592;9.600;2022-11-20T07:29:23;1.70;;;1.60;;
20369;SDS011;10344;47.592;9.600;2022-11-20T07:42:52;1.83;;;1.70;;
20369;SDS011;10344;47.592;9.600;2022-11-20T07:45:44;2.25;;;1.83;;
20369;SDS011;10344;47.592;9.600;2022-11-20T07:49:15;2.15;;;1.85;;
20369;SDS011;10344;47.592;9.600;2022-11-20T07:59:51;2.08;;;1.77;;
20369;SDS011;10344;47.592;9.600;2022-11-20T08:06:14;1.90;;;1.70;;
20369;SDS011;10344;47.592;9.600;2022-11-20T08:12:05;1.60;;;1.50;;
20369;SDS011;10344;47.592;9.600;2022-11-20T08:15:11;2.15;;;1.90;;
20369;SDS011;10344;47.592;9.600;2022-11-20T08:21:45;2.00;;;1.52;;
20369;SDS011;10344;47.592;9.600;2022-11-20T08:24:55;2.45;;;1.70;;
20369;SDS011;10344;47.592;9.600;2022-11-20T08:31:01;2.00;;;1.85;;
20369;SDS011;10344;47.592;9.600;2022-11-20T08:42:55;2.40;;;1.97;;
20369;SDS011;10344;47.592;9.600;2022-11-20T08:54:36;1.87;;;1.77;;
20369;SDS011;10344;47.592;9.600;2022-11-20T08:58:18;2.15;;;1.58;;
20369;SDS011;10344;47.592;9.600;2022-11-20T09:01:22;1.75;;;1.58;;
20369;SDS011;10344;47.592;9.600;2022-11-20T09:23:33;1.77;;;1.60;;
20369;SDS011;10344;47.592;9.600;2022-11-20T09:55:16;2.00;;;1.42;;
20369;SDS011;10344;47.592;9.600;2022-11-20T10:01:36;1.50;;;1.40;;
20369;SDS011;10344;47.592;9.600;2022-11-20T10:04:29;1.80;;;1.40;;
20369;SDS011;10344;47.592;9.600;2022-11-20T10:37:30;1.23;;;1.13;;
20369;SDS011;10344;47.592;9.600;2022-11-20T11:05:06;1.30;;;1.20;;
20369;SDS011;10344;47.592;9.600;2022-11-20T11:08:05;0.80;;;0.80;;
20369;SDS011;10344;47.592;9.600;2022-11-20T11:11:32;1.10;;;0.90;;
20369;SDS011;10344;47.592;9.600;2022-11-20T11:21:00;0.90;;;0.90;;
20369;SDS011;10344;47.592;9.600;2022-11-20T11:23:36;1.17;;;1.10;;
20369;SDS011;10344;47.592;9.600;2022-11-20T11:36:20;1.80;;;1.20;;
20369;SDS011;10344;47.592;9.600;2022-11-20T11:38:58;1.30;;;0.90;;
20369;SDS011;10344;47.592;9.600;2022-11-20T11:45:54;0.80;;;0.80;;
20369;SDS011;10344;47.592;9.600;2022-11-20T11:56:03;0.90;;;0.90;;
20369;SDS011;10344;47.592;9.600;2022-11-20T11:58:59;1.15;;;1.05;;
20369;SDS011;10344;47.592;9.600;2022-11-20T12:04:50;1.15;;;1.02;;
20369;SDS011;10344;47.592;9.600;2022-11-20T15:36:03;1.77;;;1.20;;
20369;SDS011;10344;47.592;9.600;2022-11-20T15:38:31;2.40;;;1.50;;
20369;SDS011;10344;47.592;9.600;2022-11-20T15:40:56;1.73;;;1.60;;
20369;SDS011;10344;47.592;9.600;2022-11-20T15:43:22;3.30;;;1.90;;
20369;SDS011;10344;47.592;9.600;2022-11-20T15:45:52;1.63;;;1.40;;
20369;SDS011;10344;47.592;9.600;2022-11-20T15:53:36;1.60;;;1.10;;
20369;SDS011;10344;47.592;9.600;2022-11-20T15:56:02;1.80;;;1.27;;
20369;SDS011;10344;47.592;9.600;2022-11-20T15:58:29;1.85;;;1.17;;
20369;SDS011;10344;47.592;9.600;2022-11-20T16:00:58;1.67;;;1.23;;
20369;SDS011;10344;47.592;9.600;2022-11-20T16:03:23;1.53;;;1.40;;
20369;SDS011;10344;47.592;9.600;2022-11-20T16:05:50;1.50;;;1.10;;
20369;SDS011;10344;47.592;9.600;2022-11-20T16:08:18;1.02;;;0.93;;
20369;SDS011;10344;47.592;9.600;2022-11-20T16:10:44;1.37;;;1.00;;
20369;SDS011;10344;47.592;9.600;2022-11-20T16:13:13;1.20;;;0.90;;
20369;SDS011;10344;47.592;9.600;2022-11-20T16:15:59;1.55;;;1.38;;
20369;SDS011;10344;47.592;9.600;2022-11-20T16:18:29;1.30;;;1.00;;
20369;SDS011;10344;47.592;9.600;2022-11-20T16:20:55;1.25;;;1.15;;
20369;SDS011;10344;47.592;9.600;2022-11-20T16:23:21;1.00;;;0.90;;
20369;SDS011;10344;47.592;9.600;2022-11-20T16:25:48;1.20;;;1.10;;
20369;SDS011;10344;47.592;9.600;2022-11-20T16:28:14;1.52;;;1.42;;
20369;SDS011;10344;47.592;9.600;2022-11-20T16:30:40;1.20;;;1.10;;
20369;SDS011;10344;47.592;9.600;2022-11-20T16:33:09;1.30;;;1.20;;
20369;SDS011;10344;47.592;9.600;2022-11-20T16:35:37;1.92;;;1.50;;
20369;SDS011;10344;47.592;9.600;2022-11-20T16:38:03;1.50;;;1.40;;
20369;SDS011;10344;47.592;9.600;2022-11-20T16:40:29;1.57;;;1.40;;
20369;SDS011;10344;47.592;9.600;2022-11-20T16:42:54;2.30;;;2.10;;
20369;SDS011;10344;47.592;9.600;2022-11-20T16:45:20;2.55;;;1.80;;
20369;SDS011;10344;47.592;9.600;2022-11-20T16:47:46;2.27;;;1.87;;
20369;SDS011;10344;47.592;9.600;2022-11-20T16:50:11;2.38;;;1.98;;
20369;SDS011;10344;47.592;9.600;2022-11-20T16:52:37;2.92;;;1.95;;
20369;SDS011;10344;47.592;9.600;2022-11-20T16:55:05;3.63;;;2.30;;
20369;SDS011;10344;47.592;9.600;2022-11-20T16:57:31;4.47;;;2.45;;
20369;SDS011;10344;47.592;9.600;2022-11-20T16:59:57;2.33;;;2.10;;
20369;SDS011;10344;47.592;9.600;2022-11-20T17:02:26;2.90;;;2.20;;
20369;SDS011;10344;47.592;9.600;2022-11-20T17:04:52;2.55;;;1.92;;
20369;SDS011;10344;47.592;9.600;2022-11-20T17:07:18;2.88;;;2.00;;
20369;SDS011;10344;47.592;9.600;2022-11-20T17:09:45;2.70;;;2.30;;
20369;SDS011;10344;47.592;9.600;2022-11-20T17:12:14;2.58;;;2.30;;
20369;SDS011;10344;47.592;9.600;2022-11-20T17:14:40;3.33;;;2.00;;
20369;SDS011;10344;47.592;9.600;2022-11-20T17:17:05;3.40;;;2.42;;
20369;SDS011;10344;47.592;9.600;2022-11-20T17:19:33;2.72;;;1.90;;
20369;SDS011;10344;47.592;9.600;2022-11-20T17:22:01;2.50;;;2.00;;
20369;SDS011;10344;47.592;9.600;2022-11-20T17:24:26;3.50;;;2.00;;
20369;SDS011;10344;47.592;9.600;2022-11-20T17:26:52;2.17;;;1.97;;
20369;SDS011;10344;47.592;9.600;2022-11-20T17:29:20;3.75;;;2.40;;
20369;SDS011;10344;47.592;9.600;2022-11-20T17:31:48;2.70;;;1.90;;
20369;SDS011;10344;47.592;9.600;2022-11-20T17:34:14;1.60;;;1.42;;
20369;SDS011;10344;47.592;9.600;2022-11-20T17:36:41;2.03;;;1.30;;
20369;SDS011;10344;47.592;9.600;2022-11-20T17:39:12;2.25;;;1.50;;
20369;SDS011;10344;47.592;9.600;2022-11-20T17:41:54;1.58;;;1.48;;
20369;SDS011;10344;47.592;9.600;2022-11-20T17:44:41;3.83;;;2.58;;
20369;SDS011;10344;47.592;9.600;2022-11-20T17:47:11;2.00;;;1.80;;
20369;SDS011;10344;47.592;9.600;2022-11-20T17:49:36;3.17;;;2.17;;
20369;SDS011;10344;47.592;9.600;2022-11-20T17:52:02;2.38;;;1.65;;
20369;SDS011;10344;47.592;9.600;2022-11-20T17:54:28;2.50;;;1.73;;
20369;SDS011;10344;47.592;9.600;2022-11-20T17:56:58;1.75;;;1.58;;
20369;SDS011;10344;47.592;9.600;2022-11-20T17:59:42;1.75;;;1.05;;
20369;SDS011;10344;47.592;9.600;2022-11-20T18:02:12;1.17;;;1.08;;
20369;SDS011;10344;47.592;9.600;2022-11-20T18:04:43;1.42;;;1.08;;
20369;SDS011;10344;47.592;9.600;2022-11-20T18:07:09;1.20;;;1.10;;
20369;SDS011;10344;47.592;9.600;2022-11-20T18:09:35;1.75;;;1.30;;
20369;SDS011;10344;47.592;9.600;2022-11-20T18:12:09;1.48;;;1.38;;
20369;SDS011;10344;47.592;9.600;2022-11-20T18:14:36;1.20;;;1.10;;
20369;SDS011;10344;47.592;9.600;2022-11-20T18:17:06;1.30;;;1.20;;
20369;SDS011;10344;47.592;9.600;2022-11-20T18:19:36;1.38;;;1.27;;
20369;SDS011;10344;47.592;9.600;2022-11-20T18:22:03;1.45;;;1.20;;
20369;SDS011;10344;47.592;9.600;2022-11-20T18:24:33;1.20;;;1.10;;
20369;SDS011;10344;47.592;9.600;2022-11-20T18:27:03;1.33;;;1.05;;
20369;SDS011;10344;47.592;9.600;2022-11-20T18:29:32;2.20;;;1.40;;
20369;SDS011;10344;47.592;9.600;2022-11-20T18:32:01;1.37;;;1.20;;
20369;SDS011;10344;47.592;9.600;2022-11-20T18:34:26;1.70;;;1.20;;
20369;SDS011;10344;47.592;9.600;2022-11-20T18:36:52;1.30;;;1.20;;
20369;SDS011;10344;47.592;9.600;2022-11-20T18:39:18;1.20;;;1.10;;
20369;SDS011;10344;47.592;9.600;2022-11-20T18:41:48;1.20;;;1.20;;
20369;SDS011;10344;47.592;9.600;2022-11-20T18:44:35;1.20;;;1.10;;
20369;SDS011;10344;47.592;9.600;2022-11-20T18:49:49;1.35;;;1.20;;
20369;SDS011;10344;47.592;9.600;2022-11-20T18:52:17;1.30;;;1.20;;
20369;SDS011;10344;47.592;9.600;2022-11-20T18:54:46;1.50;;;1.38;;
20369;SDS011;10344;47.592;9.600;2022-11-20T18:57:12;1.70;;;1.30;;
20369;SDS011;10344;47.592;9.600;2022-11-20T18:59:40;1.27;;;1.17;;
20369;SDS011;10344;47.592;9.600;2022-11-20T19:02:08;1.30;;;1.20;;
20369;SDS011;10344;47.592;9.600;2022-11-20T19:04:38;1.40;;;1.30;;
20369;SDS011;10344;47.592;9.600;2022-11-20T19:07:04;2.30;;;1.40;;
20369;SDS011;10344;47.592;9.600;2022-11-20T19:09:35;1.70;;;1.60;;
20369;SDS011;10344;47.592;9.600;2022-11-20T19:12:13;1.55;;;1.38;;
20369;SDS011;10344;47.592;9.600;2022-11-20T19:14:38;1.53;;;1.20;;
20369;SDS011;10344;47.592;9.600;2022-11-20T19:17:05;1.42;;;1.33;;
20369;SDS011;10344;47.592;9.600;2022-11-20T19:19:32;1.35;;;1.25;;
20369;SDS011;10344;47.592;9.600;2022-11-20T19:22:01;1.30;;;1.10;;
20369;SDS011;10344;47.592;9.600;2022-11-20T19:24:29;1.10;;;1.00;;
20369;SDS011;10344;47.592;9.600;2022-11-20T19:26:56;1.17;;;1.00;;
20369;SDS011;10344;47.592;9.600;2022-11-20T19:29:31;1.40;;;1.20;;
20369;SDS011;10344;47.592;9.600;2022-11-20T19:31:59;1.90;;;1.43;;
20369;SDS011;10344;47.592;9.600;2022-11-20T19:35:00;1.55;;;1.45;;
20369;SDS011;10344;47.592;9.600;2022-11-20T19:37:25;1.48;;;1.38;;
20369;SDS011;10344;47.592;9.600;2022-11-20T19:39:51;2.17;;;1.83;;
20369;SDS011;10344;47.592;9.600;2022-11-20T19:42:16;3.00;;;2.40;;
20369;SDS011;10344;47.592;9.600;2022-11-20T19:44:42;1.50;;;1.40;;
20369;SDS011;10344;47.592;9.600;2022-11-20T19:47:08;1.27;;;1.17;;
20369;SDS011;10344;47.592;9.600;2022-11-20T19:49:33;1.35;;;1.20;;
20369;SDS011;10344;47.592;9.600;2022-11-20T19:52:22;1.27;;;1.10;;
20369;SDS011;10344;47.592;9.600;2022-11-20T19:54:47;1.42;;;1.30;;
20369;SDS011;10344;47.592;9.600;2022-11-20T19:57:13;0.95;;;0.95;;
20369;SDS011;10344;47.592;9.600;2022-11-20T19:59:39;0.88;;;0.88;;
20369;SDS011;10344;47.592;9.600;2022-11-20T20:02:09;1.23;;;1.20;;
20369;SDS011;10344;47.592;9.600;2022-11-20T20:04:37;1.40;;;1.30;;
20369;SDS011;10344;47.592;9.600;2022-11-20T20:07:04;2.47;;;1.42;;
20369;SDS011;10344;47.592;9.600;2022-11-20T20:09:30;1.38;;;1.27;;
20369;SDS011;10344;47.592;9.600;2022-11-20T20:11:58;1.65;;;1.33;;
20369;SDS011;10344;47.592;9.600;2022-11-20T20:14:24;1.60;;;1.40;;
20369;SDS011;10344;47.592;9.600;2022-11-20T20:16:53;1.40;;;1.30;;
20369;SDS011;10344;47.592;9.600;2022-11-20T20:19:30;1.60;;;1.20;;
20369;SDS011;10344;47.592;9.600;2022-11-20T20:21:55;1.50;;;1.40;;
20369;SDS011;10344;47.592;9.600;2022-11-20T20:24:22;2.00;;;1.40;;
20369;SDS011;10344;47.592;9.600;2022-11-20T20:26:55;1.80;;;1.58;;
20369;SDS011;10344;47.592;9.600;2022-11-20T20:29:23;2.03;;;1.70;;
20369;SDS011;10344;47.592;9.600;2022-11-20T20:31:50;1.90;;;1.60;;
20369;SDS011;10344;47.592;9.600;2022-11-20T20:34:17;1.90;;;1.67;;
20369;SDS011;10344;47.592;9.600;2022-11-20T20:36:48;1.40;;;1.30;;
20369;SDS011;10344;47.592;9.600;2022-11-20T20:39:40;1.27;;;1.10;;
20369;SDS011;10344;47.592;9.600;2022-11-20T20:42:14;1.30;;;1.20;;
20369;SDS011;10344;47.592;9.600;2022-11-20T20:47:40;1.30;;;1.20;;
20369;SDS011;10344;47.592;9.600;2022-11-20T20:50:41;1.58;;;1.10;;
20369;SDS011;10344;47.592;9.600;2022-11-20T20:53:54;1.10;;;1.00;;
20369;SDS011;10344;47.592;9.600;2022-11-20T20:56:33;1.50;;;1.40;;
20369;SDS011;10344;47.592;9.600;2022-11-20T21:00:04;1.38;;;1.27;;
20369;SDS011;10344;47.592;9.600;2022-11-20T21:02:33;1.20;;;1.10;;
20369;SDS011;10344;47.592;9.600;2022-11-20T21:05:03;1.20;;;1.10;;
20369;SDS011;10344;47.592;9.600;2022-11-20T21:07:30;1.23;;;1.08;;
20369;SDS011;10344;47.592;9.600;2022-11-20T21:10:20;1.00;;;1.00;;
20369;SDS011;10344;47.592;9.600;2022-11-20T21:12:52;1.30;;;1.20;;
20369;SDS011;10344;47.592;9.600;2022-11-20T21:15:17;1.77;;;1.30;;
20369;SDS011;10344;47.592;9.600;2022-11-20T21:17:49;1.20;;;1.10;;
20369;SDS011;10344;47.592;9.600;2022-11-20T21:20:15;1.20;;;1.10;;
20369;SDS011;10344;47.592;9.600;2022-11-20T21:23:21;1.20;;;1.15;;
20369;SDS011;10344;47.592;9.600;2022-11-20T21:26:20;1.85;;;1.15;;
20369;SDS011;10344;47.592;9.600;2022-11-20T21:31:44;1.10;;;1.10;;
20369;SDS011;10344;47.592;9.600;2022-11-20T21:34:17;1.20;;;1.10;;
20369;SDS011;10344;47.592;9.600;2022-11-20T21:36:43;1.37;;;1.27;;
20369;SDS011;10344;47.592;9.600;2022-11-20T21:39:17;1.20;;;1.20;;
20369;SDS011;10344;47.592;9.600;2022-11-20T21:41:48;1.20;;;1.10;;
20369;SDS011;10344;47.592;9.600;2022-11-20T21:44:26;1.00;;;1.00;;
20369;SDS011;10344;47.592;9.600;2022-11-20T21:46:52;1.20;;;1.10;;
20369;SDS011;10344;47.592;9.600;2022-11-20T21:49:43;1.23;;;1.13;;
20369;SDS011;10344;47.592;9.600;2022-11-20T21:52:33;0.98;;;0.98;;
20369;SDS011;10344;47.592;9.600;2022-11-20T21:55:04;0.88;;;0.88;;
20369;SDS011;10344;47.592;9.600;2022-11-20T21:57:34;1.00;;;1.00;;
20369;SDS011;10344;47.592;9.600;2022-11-20T22:00:28;1.17;;;1.08;;
20369;SDS011;10344;47.592;9.600;2022-11-20T22:03:00;1.00;;;1.00;;
20369;SDS011;10344;47.592;9.600;2022-11-20T22:05:36;1.20;;;1.10;;
20369;SDS011;10344;47.592;9.600;2022-11-20T22:08:09;1.50;;;1.00;;
20369;SDS011;10344;47.592;9.600;2022-11-20T22:10:37;0.80;;;0.80;;
20369;SDS011;10344;47.592;9.600;2022-11-20T22:13:18;0.88;;;0.70;;
20369;SDS011;10344;47.592;9.600;2022-11-20T22:16:04;1.00;;;1.00;;
20369;SDS011;10344;47.592;9.600;2022-11-20T22:18:35;2.20;;;1.08;;
20369;SDS011;10344;47.592;9.600;2022-11-20T22:21:16;0.85;;;0.85;;
20369;SDS011;10344;47.592;9.600;2022-11-20T22:23:43;0.88;;;0.88;;
20369;SDS011;10344;47.592;9.600;2022-11-20T22:26:12;0.80;;;0.80;;
20369;SDS011;10344;47.592;9.600;2022-11-20T22:28:49;0.80;;;0.80;;
20369;SDS011;10344;47.592;9.600;2022-11-20T22:31:43;0.55;;;0.55;;
20369;SDS011;10344;47.592;9.600;2022-11-20T22:34:30;0.88;;;0.80;;
20369;SDS011;10344;47.592;9.600;2022-11-20T22:37:26;0.82;;;0.82;;
20369;SDS011;10344;47.592;9.600;2022-11-20T22:40:03;1.00;;;0.95;;
20369;SDS011;10344;47.592;9.600;2022-11-20T23:02:26;0.60;;;0.60;;
20369;SDS011;10344;47.592;9.600;2022-11-20T23:12:06;0.82;;;0.82;;
20369;SDS011;10344;47.592;9.600;2022-11-20T23:14:48;0.80;;;0.80;;
20369;SDS011;10344;47.592;9.600;2022-11-20T23:25:09;0.60;;;0.60;;
20369;SDS011;10344;47.592;9.600;2022-11-20T23:28:39;0.60;;;0.60;;
20369;SDS011;10344;47.592;9.600;2022-11-20T23:49:28;0.60;;;0.60;;
